Time;durP1;ratioP1;P1;durP2;ratioP2;P2;SDS_P1;SDS_P2;PMS_P1;PMS_P2;Temp;Humidity;BMP_temperature;BMP_pressure;BME280_temperature;BME280_humidity;BME280_pressure;Samples;Min_cycle;Max_cycle;Signal;HPM_P1;HPM_P2
2023/05/07 00:00:33;;;;;;;3.72;1.23;;;;;;;8.52;58.45;102626.00;5041382;28;20060;-73
2023/05/07 00:02:59;;;;;;;3.15;1.30;;;;;;;8.53;58.11;102627.69;5057422;28;20025;-73
2023/05/07 00:05:25;;;;;;;2.33;1.33;;;;;;;8.53;57.58;102625.84;5041157;28;20028;-73
2023/05/07 00:07:52;;;;;;;1.75;1.00;;;;;;;8.49;56.79;102624.44;5058131;28;20399;-73
2023/05/07 00:10:18;;;;;;;2.15;0.90;;;;;;;8.49;56.28;102623.59;5058620;28;20104;-74
2023/05/07 00:12:43;;;;;;;2.10;1.20;;;;;;;8.53;56.03;102627.69;5063691;28;20021;-73
2023/05/07 00:15:09;;;;;;;2.45;0.90;;;;;;;8.47;54.67;102624.56;5060086;28;20484;-73
2023/05/07 00:17:35;;;;;;;3.92;0.98;;;;;;;8.03;53.87;102552.66;5055353;28;20031;-74
2023/05/07 00:20:00;;;;;;;2.25;1.05;;;;;;;8.56;53.45;102630.94;5054718;28;20407;-73
2023/05/07 00:22:26;;;;;;;3.95;0.82;;;;;;;8.44;52.94;102605.22;5055078;28;20033;-74
2023/05/07 00:24:52;;;;;;;4.25;0.95;;;;;;;8.60;52.79;102636.88;5056623;28;20119;-74
2023/05/07 00:27:17;;;;;;;3.80;1.27;;;;;;;8.63;51.95;102633.91;5038752;28;20025;-74
2023/05/07 00:29:42;;;;;;;2.28;0.90;;;;;;;8.63;51.22;102636.59;5055509;28;20549;-74
2023/05/07 00:32:08;;;;;;;2.75;0.75;;;;;;;8.63;51.30;102633.91;5054710;28;20029;-73
2023/05/07 00:34:34;;;;;;;2.75;0.80;;;;;;;8.54;50.93;102626.69;5055488;28;20060;-73
2023/05/07 00:36:59;;;;;;;1.88;0.70;;;;;;;8.63;50.26;102636.59;5055750;28;20113;-73
2023/05/07 00:39:25;;;;;;;1.13;0.70;;;;;;;8.62;50.27;102630.38;5036977;28;20078;-73
2023/05/07 00:41:51;;;;;;;1.70;0.80;;;;;;;8.61;49.74;102634.06;5055545;28;20037;-73
2023/05/07 00:44:18;;;;;;;2.22;0.90;;;;;;;8.60;50.19;102635.03;5064944;28;20064;-73
2023/05/07 00:46:44;;;;;;;1.40;0.60;;;;;;;8.55;49.75;102637.28;5042209;28;20025;-73
2023/05/07 00:49:10;;;;;;;3.03;0.85;;;;;;;8.52;49.49;102637.56;5057150;28;20471;-73
2023/05/07 00:51:36;;;;;;;3.83;1.02;;;;;;;8.51;49.62;102633.22;5039088;28;20036;-73
2023/05/07 00:54:03;;;;;;;1.63;0.80;;;;;;;8.53;48.84;102633.91;5055484;28;20037;-73
2023/05/07 00:56:28;;;;;;;2.30;0.90;;;;;;;8.46;49.00;102638.13;5054831;28;20093;-73
2023/05/07 00:58:54;;;;;;;1.90;0.65;;;;;;;8.45;49.19;102631.09;5022821;28;20048;-74
2023/05/07 01:01:20;;;;;;;1.25;0.80;;;;;;;8.46;48.44;102628.25;5056012;28;20469;-73
2023/05/07 01:03:45;;;;;;;2.92;0.82;;;;;;;8.51;49.20;102641.25;5059144;28;20025;-73
2023/05/07 01:06:12;;;;;;;1.90;0.70;;;;;;;8.49;48.80;102637.84;5041552;28;20029;-73
2023/05/07 01:08:39;;;;;;;2.17;0.73;;;;;;;8.45;49.21;102639.13;5057102;28;20484;-73
2023/05/07 01:11:07;;;;;;;2.20;0.93;;;;;;;8.44;48.78;102638.28;5039132;28;20041;-73
2023/05/07 01:13:33;;;;;;;5.65;0.98;;;;;;;8.27;48.53;102617.47;5055424;28;20074;-73
2023/05/07 01:15:59;;;;;;;5.07;1.00;;;;;;;8.41;48.90;102643.94;5055175;28;20033;-73
2023/05/07 01:18:25;;;;;;;4.03;1.50;;;;;;;8.34;48.78;102648.09;5021790;28;20421;-74
2023/05/07 01:20:52;;;;;;;3.72;1.00;;;;;;;8.34;48.92;102652.63;5037859;28;20482;-74
2023/05/07 01:23:18;;;;;;;2.42;0.80;;;;;;;8.14;48.96;102627.59;5054730;28;20036;-73
2023/05/07 01:25:51;;;;;;;2.47;1.02;;;;;;;8.22;49.52;102651.91;5054976;28;20194;-73
2023/05/07 01:28:16;;;;;;;2.53;0.93;;;;;;;8.13;49.07;102658.94;5047746;28;20036;-73
2023/05/07 01:30:47;;;;;;;4.20;1.00;;;;;;;8.04;49.37;102654.41;5038783;28;20396;-74
2023/05/07 01:33:15;;;;;;;4.00;1.17;;;;;;;8.04;49.71;102662.44;5054829;28;20373;-73
2023/05/07 01:35:45;;;;;;;2.65;1.08;;;;;;;7.94;49.71;102650.84;5038370;28;20454;-73
2023/05/07 01:38:12;;;;;;;2.13;1.30;;;;;;;7.89;49.82;102661.13;5054970;28;20032;-73
2023/05/07 01:40:38;;;;;;;3.22;1.10;;;;;;;7.84;49.90;102656.16;5055739;28;20025;-74
2023/05/07 01:43:03;;;;;;;8.57;1.10;;;;;;;7.76;50.02;102664.06;5055526;28;20028;-73
2023/05/07 01:45:30;;;;;;;6.45;1.10;;;;;;;7.61;50.18;102638.59;5038831;28;20032;-73
2023/05/07 01:47:57;;;;;;;2.15;1.10;;;;;;;7.70;49.87;102651.19;5041973;28;20033;-73
2023/05/07 01:50:23;;;;;;;4.15;1.17;;;;;;;7.57;49.84;102635.34;5057575;28;20032;-73
2023/05/07 01:52:50;;;;;;;3.13;0.82;;;;;;;7.60;49.68;102653.81;5056742;28;20025;-73
2023/05/07 01:55:16;;;;;;;3.10;0.93;;;;;;;7.54;49.78;102639.13;5057384;28;20115;-73
2023/05/07 01:57:41;;;;;;;3.33;1.10;;;;;;;7.61;49.46;102655.50;5057146;28;20063;-73
2023/05/07 02:00:08;;;;;;;2.65;0.90;;;;;;;7.57;49.91;102658.59;5059028;28;20037;-73
2023/05/07 02:02:34;;;;;;;1.63;1.00;;;;;;;7.56;49.60;102659.59;5058139;28;20056;-73
2023/05/07 02:05:00;;;;;;;3.33;0.93;;;;;;;7.36;49.33;102635.38;5059335;28;20021;-73
2023/05/07 02:07:26;;;;;;;4.97;0.98;;;;;;;7.51;49.93;102655.47;5058290;28;20108;-73
2023/05/07 02:09:52;;;;;;;2.22;1.00;;;;;;;7.41;49.41;102651.88;5058656;28;20057;-73
2023/05/07 02:12:17;;;;;;;5.07;1.05;;;;;;;7.41;49.61;102664.44;5040931;28;20025;-74
2023/05/07 02:14:42;;;;;;;1.45;1.00;;;;;;;7.39;49.65;102661.91;5059200;28;20108;-73
2023/05/07 02:17:08;;;;;;;2.03;0.75;;;;;;;7.19;49.91;102636.00;5039543;28;20029;-73
2023/05/07 02:19:34;;;;;;;2.92;0.93;;;;;;;7.28;49.76;102660.16;5041385;28;20032;-73
2023/05/07 02:21:59;;;;;;;2.72;0.90;;;;;;;7.28;49.97;102659.28;5065107;28;20075;-73
2023/05/07 02:24:25;;;;;;;1.77;0.90;;;;;;;7.24;49.79;102665.88;5058778;28;20036;-73
2023/05/07 02:26:50;;;;;;;1.98;1.02;;;;;;;7.22;49.59;102665.19;5025021;28;20047;-73
2023/05/07 02:29:16;;;;;;;2.63;1.00;;;;;;;7.16;49.68;102663.88;5058168;28;20032;-74
2023/05/07 02:31:41;;;;;;;1.58;0.90;;;;;;;7.15;49.92;102655.97;5058785;28;20076;-73
2023/05/07 02:34:07;;;;;;;1.85;0.95;;;;;;;7.06;49.83;102665.66;5057220;28;20044;-73
2023/05/07 02:36:32;;;;;;;2.60;0.90;;;;;;;7.03;49.89;102666.75;5040481;28;20036;-73
2023/05/07 02:38:57;;;;;;;1.73;0.80;;;;;;;7.02;49.79;102669.56;5058790;28;20029;-73
2023/05/07 02:41:23;;;;;;;3.17;0.85;;;;;;;6.95;49.95;102668.38;5020962;28;20033;-73
2023/05/07 02:43:48;;;;;;;6.32;1.02;;;;;;;6.91;50.09;102661.59;5056914;28;20059;-73
2023/05/07 02:46:14;;;;;;;2.38;1.10;;;;;;;6.87;50.08;102669.03;5037911;28;20032;-74
2023/05/07 02:48:39;;;;;;;3.45;1.10;;;;;;;6.86;50.18;102664.66;5054642;28;20029;-73
2023/05/07 02:51:05;;;;;;;3.30;1.17;;;;;;;6.85;49.85;102667.44;5057564;28;20464;-74
2023/05/07 02:53:31;;;;;;;1.65;0.80;;;;;;;6.75;49.97;102657.50;5056752;28;20029;-73
2023/05/07 02:55:58;;;;;;;3.90;0.93;;;;;;;6.76;50.25;102669.94;5039587;28;20119;-73
2023/05/07 02:58:24;;;;;;;3.85;0.90;;;;;;;6.63;50.26;102657.72;5057340;28;20128;-73
2023/05/07 03:00:50;;;;;;;3.58;1.05;;;;;;;6.66;50.53;102669.00;5059620;28;20467;-73
2023/05/07 03:03:15;;;;;;;3.28;0.90;;;;;;;6.67;50.13;102676.03;5057694;28;20029;-72
2023/05/07 03:05:41;;;;;;;2.15;1.00;;;;;;;6.58;50.39;102666.94;5064889;28;20032;-73
2023/05/07 03:08:07;;;;;;;2.58;0.90;;;;;;;6.71;50.72;102677.47;5067517;28;20084;-73
2023/05/07 03:10:33;;;;;;;2.33;0.90;;;;;;;6.50;50.48;102633.81;5059921;28;20032;-73
2023/05/07 03:12:58;;;;;;;1.33;0.73;;;;;;;6.76;49.87;102679.78;5057563;28;20021;-73
2023/05/07 03:15:24;;;;;;;2.03;1.00;;;;;;;6.73;50.12;102674.69;5058029;28;20031;-73
2023/05/07 03:17:49;;;;;;;2.90;1.17;;;;;;;6.61;50.52;102663.16;5056722;28;20105;-73
2023/05/07 03:20:15;;;;;;;1.70;0.70;;;;;;;6.83;50.08;102671.09;5039825;28;20130;-73
2023/05/07 03:22:40;;;;;;;1.90;0.70;;;;;;;6.92;49.63;102677.53;5056727;28;20064;-73
2023/05/07 03:25:09;;;;;;;2.97;0.93;;;;;;;6.89;49.73;102672.44;5040647;28;20056;-73
2023/05/07 03:27:34;;;;;;;1.98;0.70;;;;;;;6.92;49.74;102676.66;5056450;28;20028;-73
2023/05/07 03:30:00;;;;;;;2.10;1.17;;;;;;;6.94;49.66;102672.03;5056682;28;20039;-73
2023/05/07 03:32:26;;;;;;;2.83;1.10;;;;;;;6.82;50.04;102666.75;5057684;28;20028;-73
2023/05/07 03:34:51;;;;;;;5.68;1.13;;;;;;;6.65;50.24;102645.88;5056803;28;20033;-73
2023/05/07 03:37:17;;;;;;;3.42;0.80;;;;;;;6.97;49.74;102677.97;5055930;28;20028;-73
2023/05/07 03:39:43;;;;;;;2.58;0.90;;;;;;;6.87;49.88;102671.69;5057605;28;20036;-74
2023/05/07 03:42:08;;;;;;;1.40;0.90;;;;;;;7.20;49.41;102661.78;5056217;28;20025;-73
2023/05/07 03:44:35;;;;;;;5.78;1.00;;;;;;;7.77;47.85;102676.47;5039328;28;20442;-73
2023/05/07 03:47:01;;;;;;;4.03;1.10;;;;;;;7.59;48.45;102668.22;5040078;28;20357;-73
2023/05/07 03:49:27;;;;;;;1.38;0.80;;;;;;;7.58;48.13;102662.97;5055583;28;20029;-74
2023/05/07 03:51:52;;;;;;;1.90;0.90;;;;;;;8.61;46.01;102655.53;5054368;28;20029;-73
2023/05/07 03:54:17;;;;;;;6.88;1.10;;;;;;;9.50;44.39;102657.06;5038877;28;20028;-73
2023/05/07 03:56:43;;;;;;;4.55;0.95;;;;;;;10.34;42.73;102689.25;5054246;28;20025;-74
2023/05/07 03:59:08;;;;;;;3.03;1.30;;;;;;;10.72;41.67;102681.88;5055094;28;20082;-73
2023/05/07 04:01:33;;;;;;;1.98;1.10;;;;;;;11.18;40.92;102669.13;5038299;28;20029;-72
2023/05/07 04:03:59;;;;;;;3.70;1.10;;;;;;;11.65;40.35;102675.00;5054930;28;20032;-73
2023/05/07 04:06:25;;;;;;;3.90;1.00;;;;;;;12.13;39.27;102676.25;5056058;28;20097;-73
2023/05/07 04:08:50;;;;;;;3.33;0.90;;;;;;;12.25;39.03;102668.72;5054803;28;20041;-73
2023/05/07 04:11:15;;;;;;;2.17;1.00;;;;;;;11.81;39.11;102649.97;5055880;28;20130;-73
2023/05/07 04:13:41;;;;;;;3.35;1.00;;;;;;;12.06;38.64;102672.53;5038881;28;20501;-73
2023/05/07 04:16:06;;;;;;;2.75;1.00;;;;;;;12.54;38.05;102635.84;5052301;28;20028;-73
2023/05/07 04:18:32;;;;;;;4.93;1.15;;;;;;;12.97;37.20;102655.44;5050393;28;20039;-73
2023/05/07 04:20:57;;;;;;;4.75;1.08;;;;;;;13.40;36.79;102677.72;5055576;28;20053;-72
2023/05/07 04:23:23;;;;;;;1.50;1.00;;;;;;;13.95;36.43;102678.75;5057426;28;20262;-73
2023/05/07 04:25:48;;;;;;;4.85;1.10;;;;;;;14.12;35.78;102683.06;5056440;28;20029;-73
2023/05/07 04:28:13;;;;;;;1.75;0.85;;;;;;;14.29;35.27;102689.25;5039458;28;20082;-73
2023/05/07 04:30:39;;;;;;;1.60;0.90;;;;;;;14.35;34.99;102683.13;5023193;28;20025;-73
2023/05/07 04:33:06;;;;;;;1.10;0.90;;;;;;;14.49;34.77;102684.22;5055681;28;20025;-73
2023/05/07 04:35:32;;;;;;;1.40;0.90;;;;;;;14.64;34.74;102681.63;5039259;28;20047;-73
2023/05/07 04:37:57;;;;;;;3.15;1.00;;;;;;;14.30;35.16;102683.66;5057247;28;20100;-73
2023/05/07 04:40:22;;;;;;;2.80;1.17;;;;;;;14.07;35.19;102686.31;5056089;28;20033;-73
2023/05/07 04:42:48;;;;;;;2.33;0.90;;;;;;;13.65;35.68;102685.78;5039305;28;20056;-73
2023/05/07 04:45:14;;;;;;;1.35;0.90;;;;;;;13.90;35.21;102683.84;5039157;28;20476;-73
2023/05/07 04:47:39;;;;;;;1.88;1.00;;;;;;;14.00;35.05;102696.13;5056334;28;20087;-73
2023/05/07 04:50:06;;;;;;;1.92;0.90;;;;;;;14.17;34.67;102686.09;5022743;28;20029;-73
2023/05/07 04:52:32;;;;;;;1.60;0.80;;;;;;;14.13;34.20;102683.91;5055535;28;20036;-73
2023/05/07 04:54:59;;;;;;;4.97;1.02;;;;;;;13.80;34.97;102690.28;5054178;28;20033;-73
2023/05/07 04:57:26;;;;;;;2.63;1.02;;;;;;;13.46;35.22;102690.56;5056261;28;20081;-73
2023/05/07 04:59:52;;;;;;;2.88;1.10;;;;;;;13.59;34.62;102679.22;5055996;28;20033;-73
2023/05/07 05:02:17;;;;;;;7.22;1.20;;;;;;;14.33;34.24;102658.91;5041924;28;20036;-73
2023/05/07 05:04:42;;;;;;;1.73;0.85;;;;;;;15.03;33.71;102670.59;5056177;28;20027;-73
2023/05/07 05:07:08;;;;;;;2.85;0.70;;;;;;;15.26;32.99;102681.41;5066442;28;20068;-73
2023/05/07 05:09:33;;;;;;;1.45;0.80;;;;;;;14.22;33.95;102685.56;5059773;28;20039;-73
2023/05/07 05:11:59;;;;;;;4.65;0.98;;;;;;;13.97;34.02;102688.38;5056268;28;20025;-73
2023/05/07 05:14:25;;;;;;;2.83;0.98;;;;;;;13.82;34.48;102682.84;5057401;28;20033;-73
2023/05/07 05:16:50;;;;;;;4.07;1.83;;;;;;;13.52;34.56;102641.19;5053879;28;20024;-73
2023/05/07 05:19:16;;;;;;;2.42;0.95;;;;;;;14.14;34.12;102685.59;5053897;28;20036;-73
2023/05/07 05:21:41;;;;;;;2.80;0.90;;;;;;;13.36;34.72;102681.78;5058384;28;20045;-73
2023/05/07 05:24:07;;;;;;;2.38;0.77;;;;;;;13.61;34.28;102671.78;5060988;28;20027;-73
2023/05/07 05:26:32;;;;;;;1.35;0.98;;;;;;;12.65;35.33;102689.56;5042669;28;20025;-73
2023/05/07 05:28:58;;;;;;;3.25;0.82;;;;;;;12.32;36.76;102694.03;5061058;28;20028;-72
2023/05/07 05:31:23;;;;;;;2.72;1.10;;;;;;;11.53;37.63;102681.69;5058940;28;20041;-70
2023/05/07 05:33:49;;;;;;;2.28;0.90;;;;;;;10.99;38.52;102683.63;5060821;28;20097;-72
2023/05/07 05:36:14;;;;;;;2.28;0.98;;;;;;;11.27;38.66;102684.38;5058909;28;20040;-71
2023/05/07 05:38:40;;;;;;;3.30;1.00;;;;;;;10.77;39.09;102691.22;5060405;28;20602;-71
2023/05/07 05:41:05;;;;;;;1.65;0.90;;;;;;;10.95;38.41;102674.19;5060470;28;20028;-70
2023/05/07 05:43:31;;;;;;;1.85;0.80;;;;;;;10.53;38.57;102693.66;5058078;28;20017;-70
2023/05/07 05:45:57;;;;;;;4.13;1.13;;;;;;;10.63;38.87;102693.56;5057560;28;20086;-69
2023/05/07 05:48:23;;;;;;;2.22;0.85;;;;;;;10.95;38.82;102695.72;5060465;28;20048;-71
2023/05/07 05:50:48;;;;;;;2.15;0.95;;;;;;;11.24;38.77;102692.78;5063118;28;20100;-70
2023/05/07 05:53:14;;;;;;;3.45;0.98;;;;;;;11.48;38.06;102679.44;5046677;28;20541;-70
2023/05/07 05:55:39;;;;;;;4.43;1.05;;;;;;;11.67;38.19;102680.25;5055076;28;20050;-72
2023/05/07 05:58:05;;;;;;;2.97;0.85;;;;;;;11.16;38.10;102685.47;5056325;28;20389;-72
2023/05/07 06:00:30;;;;;;;5.22;0.93;;;;;;;11.02;38.49;102691.41;5059470;28;20027;-72
2023/05/07 06:02:56;;;;;;;2.30;1.08;;;;;;;11.24;38.54;102688.22;5058659;28;20083;-72
2023/05/07 06:05:21;;;;;;;2.38;0.90;;;;;;;11.38;38.34;102694.03;5041554;28;20072;-71
2023/05/07 06:07:47;;;;;;;2.20;1.25;;;;;;;11.46;38.24;102683.31;5024684;28;20029;-71
2023/05/07 06:10:12;;;;;;;2.53;0.88;;;;;;;11.42;38.31;102663.06;5040964;28;20036;-71
2023/05/07 06:12:38;;;;;;;3.67;1.00;;;;;;;11.61;37.83;102686.25;5042270;28;20534;-71
2023/05/07 06:15:04;;;;;;;2.20;1.00;;;;;;;12.17;37.64;102685.72;5059251;28;20384;-77
2023/05/07 06:17:30;;;;;;;4.63;1.13;;;;;;;12.03;38.08;102694.44;5056002;28;20029;-71
2023/05/07 06:19:55;;;;;;;2.90;1.13;;;;;;;11.73;37.71;102696.63;5037144;28;20029;-71
2023/05/07 06:22:21;;;;;;;3.10;1.00;;;;;;;11.93;37.20;102691.03;5037090;28;20110;-70
2023/05/07 06:24:47;;;;;;;2.40;1.10;;;;;;;12.18;37.38;102700.03;5059005;28;20033;-70
2023/05/07 06:27:12;;;;;;;1.27;0.90;;;;;;;12.38;37.26;102700.59;5056345;28;20051;-72
2023/05/07 06:29:37;;;;;;;3.13;1.00;;;;;;;12.26;37.23;102701.94;5056356;28;20049;-72
2023/05/07 06:32:07;;;;;;;1.83;1.00;;;;;;;11.86;37.41;102692.69;5055323;28;20025;-72
2023/05/07 06:34:33;;;;;;;2.80;0.93;;;;;;;12.08;37.32;102678.59;5056321;28;20063;-72
2023/05/07 06:36:58;;;;;;;3.58;1.10;;;;;;;12.14;36.97;102693.28;5039759;28;20029;-72
2023/05/07 06:39:24;;;;;;;3.30;0.93;;;;;;;12.04;36.86;102700.66;5056700;28;20064;-72
2023/05/07 06:41:49;;;;;;;4.90;1.10;;;;;;;12.78;36.51;102707.09;5056731;28;20036;-72
2023/05/07 06:44:15;;;;;;;3.80;1.10;;;;;;;12.96;36.19;102702.41;5056962;28;20480;-72
2023/05/07 06:46:41;;;;;;;2.97;1.02;;;;;;;12.49;36.81;102704.88;5056799;28;20039;-72
2023/05/07 06:49:06;;;;;;;5.25;1.10;;;;;;;12.43;36.78;102712.63;5056447;28;20567;-72
2023/05/07 06:51:32;;;;;;;2.72;1.08;;;;;;;12.79;36.47;102708.81;5039363;28;20060;-72
2023/05/07 06:53:57;;;;;;;5.32;1.10;;;;;;;12.85;36.23;102714.38;5058410;28;20029;-72
2023/05/07 06:56:23;;;;;;;6.15;1.13;;;;;;;13.01;35.81;102716.22;5056042;28;20211;-72
2023/05/07 06:58:48;;;;;;;3.00;1.02;;;;;;;13.66;35.46;102714.53;5056922;28;20423;-72
2023/05/07 07:01:14;;;;;;;2.15;1.08;;;;;;;14.14;34.50;102718.06;5057156;28;20033;-71
2023/05/07 07:03:40;;;;;;;7.00;1.38;;;;;;;13.88;34.57;102718.38;5039253;28;20404;-72
2023/05/07 07:06:05;;;;;;;2.72;1.38;;;;;;;13.63;34.28;102721.13;5037649;28;20044;-72
2023/05/07 07:08:31;;;;;;;1.50;1.00;;;;;;;13.76;34.43;102712.47;5054612;28;20557;-71
2023/05/07 07:10:57;;;;;;;2.45;1.10;;;;;;;13.95;34.27;102708.53;5038453;28;20025;-72
2023/05/07 07:13:22;;;;;;;4.13;1.52;;;;;;;14.22;33.75;102705.34;5054614;28;20535;-72
2023/05/07 07:15:48;;;;;;;3.50;1.23;;;;;;;14.57;33.65;102720.25;5055939;28;20025;-72
2023/05/07 07:18:13;;;;;;;3.03;1.02;;;;;;;14.68;33.38;102713.59;5053977;28;20035;-72
2023/05/07 07:20:38;;;;;;;2.97;1.17;;;;;;;14.62;33.57;102719.72;5055789;28;20053;-72
2023/05/07 07:23:04;;;;;;;1.80;1.00;;;;;;;14.83;33.01;102721.75;5055178;28;20028;-72
2023/05/07 07:25:30;;;;;;;1.58;1.00;;;;;;;14.67;33.36;102724.59;5054075;28;20083;-72
2023/05/07 07:27:55;;;;;;;6.00;1.42;;;;;;;14.72;33.18;102701.34;5054266;28;20139;-72
2023/05/07 07:30:20;;;;;;;3.30;1.40;;;;;;;14.66;32.32;102714.78;5051090;28;20376;-72
2023/05/07 07:32:46;;;;;;;2.53;1.55;;;;;;;14.85;32.78;102725.16;5036903;28;20033;-72
2023/05/07 07:35:11;;;;;;;2.97;1.50;;;;;;;14.39;32.92;102722.34;5054297;28;20032;-72
2023/05/07 07:37:37;;;;;;;3.25;1.00;;;;;;;13.92;32.97;102723.25;5037656;28;20024;-72
2023/05/07 07:40:03;;;;;;;4.70;1.85;;;;;;;13.44;32.90;102716.91;5054160;28;20040;-72
2023/05/07 07:42:29;;;;;;;2.25;1.30;;;;;;;12.90;33.00;102716.56;5054778;28;20029;-71
2023/05/07 07:44:55;;;;;;;3.30;1.15;;;;;;;13.01;32.56;102713.53;5057445;28;20125;-72
2023/05/07 07:47:20;;;;;;;3.67;1.20;;;;;;;13.83;32.29;102727.81;5039398;28;20053;-72
2023/05/07 07:49:45;;;;;;;2.88;1.52;;;;;;;13.59;31.62;102703.56;5056175;28;20033;-72
2023/05/07 07:52:11;;;;;;;3.10;1.35;;;;;;;14.15;31.73;102717.91;5038764;28;20322;-72
2023/05/07 07:54:36;;;;;;;6.82;1.45;;;;;;;14.37;30.73;102718.13;5059600;28;20037;-72
2023/05/07 07:57:02;;;;;;;3.63;1.20;;;;;;;14.70;31.10;102716.09;5059884;28;20025;-72
2023/05/07 07:59:27;;;;;;;2.60;1.23;;;;;;;14.32;30.49;102716.81;5056632;28;20059;-72
2023/05/07 08:01:55;;;;;;;2.78;1.10;;;;;;;13.93;30.88;102722.22;5057761;28;20377;-71
2023/05/07 08:04:21;;;;;;;3.80;1.10;;;;;;;13.33;31.74;102717.28;5042611;28;20025;-71
2023/05/07 08:06:46;;;;;;;2.78;0.90;;;;;;;13.46;31.52;102714.91;5055905;28;20040;-72
2023/05/07 08:09:12;;;;;;;1.58;0.90;;;;;;;13.41;31.30;102717.28;5055172;28;20111;-72
2023/05/07 08:11:38;;;;;;;1.80;1.30;;;;;;;13.69;30.87;102708.78;5057140;28;20029;-72
2023/05/07 08:14:04;;;;;;;3.75;1.00;;;;;;;13.40;31.09;102711.00;5056616;28;20036;-72
2023/05/07 08:16:30;;;;;;;2.47;0.90;;;;;;;13.95;30.75;102703.09;5055276;28;20029;-72
2023/05/07 08:18:55;;;;;;;1.98;1.05;;;;;;;13.76;31.27;102705.19;5053389;28;20032;-72
2023/05/07 08:21:22;;;;;;;3.13;1.00;;;;;;;14.36;30.77;102701.03;5054647;28;20048;-72
2023/05/07 08:23:47;;;;;;;1.85;1.10;;;;;;;14.43;30.87;102710.13;5056966;28;20391;-72
2023/05/07 08:26:13;;;;;;;3.55;1.27;;;;;;;14.51;30.37;102683.06;5055677;28;20024;-72
2023/05/07 08:28:39;;;;;;;5.47;1.00;;;;;;;14.28;30.36;102707.34;5057054;28;20108;-72
2023/05/07 08:31:05;;;;;;;3.17;1.13;;;;;;;14.05;31.14;102704.59;5056359;28;20040;-72
2023/05/07 08:33:31;;;;;;;7.80;1.23;;;;;;;14.70;30.38;102707.97;5056474;28;20025;-72
2023/05/07 08:35:56;;;;;;;2.05;1.00;;;;;;;15.25;30.83;102699.56;5055451;28;20029;-72
2023/05/07 08:38:22;;;;;;;2.25;0.90;;;;;;;15.02;30.29;102702.31;5056850;28;20028;-72
2023/05/07 08:40:47;;;;;;;3.17;1.05;;;;;;;15.04;30.47;102694.00;5054522;28;20029;-72
2023/05/07 08:43:14;;;;;;;2.88;1.15;;;;;;;15.02;29.98;102702.31;5056647;28;20017;-71
2023/05/07 08:45:40;;;;;;;3.03;1.10;;;;;;;15.25;29.88;102702.28;5060822;28;20033;-72
2023/05/07 08:48:14;;;;;;;2.40;1.08;;;;;;;14.74;29.21;102703.91;5055780;28;20056;-72
2023/05/07 08:50:39;;;;;;;2.85;1.20;;;;;;;14.51;29.62;102707.44;5057170;28;20392;-72
2023/05/07 08:53:06;;;;;;;3.75;1.08;;;;;;;14.34;29.19;102708.53;5055859;28;20021;-72
2023/05/07 08:55:33;;;;;;;5.40;1.13;;;;;;;14.99;28.85;102690.97;5059785;28;20043;-72
2023/05/07 08:57:58;;;;;;;2.15;0.93;;;;;;;15.47;28.43;102691.56;5042638;28;20116;-72
2023/05/07 09:00:24;;;;;;;4.20;1.23;;;;;;;15.20;28.80;102695.75;5060348;28;20092;-72
2023/05/07 09:02:50;;;;;;;2.30;0.82;;;;;;;15.25;28.58;102696.84;5058559;28;20029;-72
2023/05/07 09:05:15;;;;;;;4.35;1.10;;;;;;;15.20;28.15;102699.28;5057896;28;20033;-72
2023/05/07 09:07:41;;;;;;;1.65;1.00;;;;;;;15.06;27.39;102699.22;5061904;28;20033;-72
2023/05/07 09:10:07;;;;;;;2.80;1.00;;;;;;;15.51;28.06;102695.59;5062543;28;20040;-72
2023/05/07 09:12:35;;;;;;;2.60;1.13;;;;;;;15.23;27.74;102695.34;5059967;28;20033;-72
2023/05/07 09:15:00;;;;;;;3.10;0.93;;;;;;;15.12;26.90;102685.78;5059984;28;20025;-72
2023/05/07 09:17:26;;;;;;;2.63;1.08;;;;;;;15.42;27.33;102686.69;5059351;28;20021;-72
2023/05/07 09:19:53;;;;;;;2.47;0.70;;;;;;;16.25;26.89;102692.84;5040327;28;20155;-72
2023/05/07 09:22:18;;;;;;;2.58;1.20;;;;;;;16.57;26.64;102694.25;5055562;28;20477;-72
2023/05/07 09:24:48;;;;;;;3.70;1.00;;;;;;;16.79;26.77;102691.59;5056786;28;20029;-72
2023/05/07 09:27:14;;;;;;;2.33;1.00;;;;;;;16.68;26.34;102685.59;5063468;28;20016;-72
2023/05/07 09:29:39;;;;;;;3.17;1.40;;;;;;;16.47;25.98;102698.34;5066229;28;20063;-72
2023/05/07 09:32:06;;;;;;;4.78;1.10;;;;;;;16.53;26.48;102700.28;5059370;28;20533;-72
2023/05/07 09:34:31;;;;;;;3.28;1.08;;;;;;;16.15;26.07;102692.31;5066391;28;20029;-72
2023/05/07 09:37:04;;;;;;;3.15;1.20;;;;;;;15.38;26.03;102689.97;5060138;28;20384;-72
2023/05/07 09:39:59;;;;;;;3.65;0.90;;;;;;;16.47;25.41;102701.06;5041757;28;20021;-72
2023/05/07 09:42:27;;;;;;;2.10;0.90;;;;;;;16.27;25.99;102696.22;5029116;28;20041;-72
2023/05/07 09:44:53;;;;;;;3.53;1.50;;;;;;;15.96;26.20;102688.34;5060031;28;20037;-72
2023/05/07 09:47:20;;;;;;;2.35;0.88;;;;;;;16.29;25.97;102687.88;5060111;28;20028;-72
2023/05/07 09:49:48;;;;;;;3.30;1.00;;;;;;;16.71;26.51;102683.53;5059829;28;20032;-72
2023/05/07 09:52:14;;;;;;;3.25;1.05;;;;;;;17.01;26.01;102665.22;5059424;28;20077;-72
2023/05/07 09:54:42;;;;;;;3.63;1.00;;;;;;;17.26;25.78;102679.25;5041714;28;20455;-72
2023/05/07 09:57:11;;;;;;;2.22;0.98;;;;;;;17.57;25.58;102676.91;5041943;28;20057;-72
2023/05/07 09:59:38;;;;;;;4.05;1.10;;;;;;;17.64;25.61;102685.13;5060234;28;20483;-72
2023/05/07 10:02:04;;;;;;;3.28;0.95;;;;;;;17.82;25.27;102680.03;5057688;28;20029;-72
2023/05/07 10:04:31;;;;;;;1.77;1.00;;;;;;;17.96;25.60;102678.22;5057979;28;20061;-72
2023/05/07 10:06:58;;;;;;;5.35;1.20;;;;;;;18.05;25.43;102678.91;5058465;28;20400;-72
2023/05/07 10:09:25;;;;;;;3.15;1.08;;;;;;;18.02;24.88;102676.56;5059016;28;20033;-72
2023/05/07 10:11:51;;;;;;;1.52;0.80;;;;;;;18.00;25.12;102674.03;5065363;28;20025;-72
2023/05/07 10:14:17;;;;;;;3.17;0.90;;;;;;;17.91;25.53;102652.63;5065893;28;20556;-72
2023/05/07 10:16:43;;;;;;;2.72;1.00;;;;;;;18.20;25.21;102679.56;5055515;28;20029;-73
2023/05/07 10:19:09;;;;;;;1.70;1.00;;;;;;;18.24;24.77;102667.19;5058281;28;20183;-72
2023/05/07 10:21:42;;;;;;;4.20;0.98;;;;;;;17.93;23.93;102667.72;5057635;28;20067;-72
2023/05/07 10:24:19;;;;;;;5.20;1.10;;;;;;;18.11;24.21;102671.78;5057196;28;20174;-72
2023/05/07 10:26:49;;;;;;;2.20;1.08;;;;;;;18.03;24.34;102659.19;5057334;28;20035;-72
2023/05/07 10:29:30;;;;;;;1.40;1.08;;;;;;;17.85;24.37;102673.34;5058663;28;20039;-72
2023/05/07 10:32:04;;;;;;;3.50;1.00;;;;;;;17.99;24.58;102656.03;5058184;28;20391;-73
2023/05/07 10:34:35;;;;;;;2.55;0.90;;;;;;;18.35;24.65;102684.03;5057549;28;20036;-73
2023/05/07 10:37:03;;;;;;;2.47;0.98;;;;;;;18.18;23.48;102673.50;5057153;28;20371;-73
2023/05/07 10:39:29;;;;;;;1.33;0.90;;;;;;;18.25;23.90;102685.25;5056798;28;20487;-73
2023/05/07 10:41:55;;;;;;;2.00;0.90;;;;;;;17.79;23.01;102672.28;5056795;28;20025;-73
2023/05/07 10:44:28;;;;;;;5.35;1.10;;;;;;;17.97;23.25;102681.78;5057338;28;20049;-73
2023/05/07 10:47:09;;;;;;;1.48;1.00;;;;;;;17.79;23.16;102674.16;5056214;28;20044;-73
2023/05/07 10:49:44;;;;;;;2.95;1.17;;;;;;;17.81;23.83;102677.50;5056175;28;20103;-73
2023/05/07 10:52:20;;;;;;;3.80;1.00;;;;;;;18.26;24.27;102680.63;5058515;28;20098;-72
2023/05/07 10:54:47;;;;;;;5.72;1.10;;;;;;;18.54;24.13;102677.75;5059343;28;20045;-72
2023/05/07 10:57:30;;;;;;;1.90;0.90;;;;;;;17.70;22.97;102669.88;5061431;28;20040;-73
2023/05/07 10:59:56;;;;;;;3.15;1.02;;;;;;;18.08;24.15;102673.03;5059849;28;20029;-73
2023/05/07 11:02:21;;;;;;;2.55;1.13;;;;;;;18.29;24.50;102669.34;5057786;28;20024;-72
2023/05/07 11:05:22;;;;;;;1.73;0.90;;;;;;;18.46;22.93;102681.53;5057473;28;20033;-73
2023/05/07 11:07:58;;;;;;;4.13;0.90;;;;;;;18.25;23.86;102674.34;5040738;28;20047;-73
2023/05/07 11:10:52;;;;;;;4.32;0.98;;;;;;;18.44;23.81;102671.88;5040677;28;20036;-72
2023/05/07 11:13:38;;;;;;;2.40;1.20;;;;;;;18.05;24.32;102668.00;5056787;28;20024;-72
2023/05/07 11:16:04;;;;;;;3.15;1.20;;;;;;;17.65;25.73;102658.75;5058919;28;20048;-73
2023/05/07 11:18:49;;;;;;;2.85;0.90;;;;;;;17.27;26.63;102659.97;5056922;28;20025;-72
2023/05/07 11:21:34;;;;;;;1.70;1.05;;;;;;;16.93;27.96;102644.44;5057430;28;20230;-72
2023/05/07 11:24:01;;;;;;;3.17;1.10;;;;;;;17.06;27.00;102665.47;5055108;28;20029;-74
2023/05/07 11:26:28;;;;;;;1.75;1.13;;;;;;;16.82;28.18;102659.44;5052172;28;20532;-73